createdAt,value
2018-09-06T04:30:41.842Z,15.60
2018-09-06T04:33:09.968Z,15.60
2018-09-06T04:35:38.050Z,15.60
2018-09-06T04:38:06.165Z,15.60
2018-09-06T04:40:34.266Z,15.60
2018-09-06T04:43:02.372Z,15.50
2018-09-06T04:45:30.461Z,15.50
2018-09-06T04:47:58.564Z,15.50
2018-09-06T04:50:26.693Z,15.50
2018-09-06T04:52:54.776Z,15.50
2018-09-06T04:55:22.958Z,15.50
2018-09-06T04:57:51.082Z,15.50
2018-09-06T05:00:19.143Z,15.60
2018-09-06T05:02:47.358Z,15.60
2018-09-06T05:05:15.469Z,15.70
2018-09-06T05:07:43.570Z,15.70
2018-09-06T05:10:11.661Z,15.70
2018-09-06T05:12:39.745Z,15.70
2018-09-06T05:15:07.925Z,15.80
2018-09-06T05:17:36.000Z,15.90
2018-09-06T05:20:04.252Z,15.90
2018-09-06T05:22:32.448Z,16.00
2018-09-06T05:25:00.520Z,16.10
2018-09-06T05:27:28.588Z,16.10
2018-09-06T05:29:56.672Z,16.10
2018-09-06T05:32:25.860Z,16.10
2018-09-06T05:34:54.035Z,16.20
2018-09-06T05:37:22.112Z,16.30
2018-09-06T05:39:50.188Z,16.40
2018-09-06T05:42:18.269Z,16.40
2018-09-06T05:44:46.348Z,16.40
2018-09-06T05:47:14.426Z,16.50
2018-09-06T05:49:42.570Z,16.50
2018-09-06T05:52:10.639Z,16.60
2018-09-06T05:54:38.712Z,16.70
2018-09-06T05:57:06.797Z,16.70
2018-09-06T05:59:35.021Z,16.80
2018-09-06T06:02:03.056Z,16.90
2018-09-06T06:04:32.025Z,16.90
2018-09-06T06:07:00.097Z,16.70
2018-09-06T06:09:28.181Z,16.60
2018-09-06T06:11:56.279Z,16.50
2018-09-06T06:14:24.337Z,16.70
2018-09-06T06:16:52.487Z,16.80
2018-09-06T06:19:20.558Z,16.70
2018-09-06T06:21:48.629Z,16.80
2018-09-06T06:24:16.713Z,16.80
2018-09-06T06:26:44.840Z,16.80
2018-09-06T06:29:12.949Z,17.00
2018-09-06T06:31:41.042Z,17.30
2018-09-06T06:34:10.209Z,17.40
2018-09-06T06:36:38.281Z,17.70
2018-09-06T06:39:08.705Z,17.80
2018-09-06T06:41:36.821Z,18.10
2018-09-06T06:44:05.017Z,18.20
2018-09-06T15:01:00.653Z,23.70
2018-09-06T15:03:28.737Z,23.60
2018-09-06T15:05:56.837Z,23.40
2018-09-06T15:08:24.982Z,23.40
2018-09-06T15:10:53.100Z,23.20
2018-09-06T15:13:21.187Z,23.20
2018-09-06T15:15:49.291Z,23.00
2018-09-06T15:18:17.396Z,22.90
2018-09-06T15:20:45.547Z,22.80
2018-09-06T15:23:13.644Z,22.70
2018-09-06T15:25:41.728Z,22.40
2018-09-06T15:28:09.910Z,22.20
2018-09-06T15:30:38.043Z,21.70
2018-09-06T15:33:06.517Z,21.40
2018-09-06T15:35:35.280Z,21.00
2018-09-06T15:38:03.392Z,20.70
2018-09-06T15:40:31.558Z,20.50
2018-09-06T15:42:59.736Z,20.20
2018-09-06T15:45:27.901Z,20.00
2018-09-06T15:47:56.082Z,19.60
2018-09-06T15:50:24.256Z,19.40
2018-09-06T15:52:52.315Z,19.10
2018-09-06T15:55:20.398Z,18.90
2018-09-06T15:57:48.782Z,18.80
2018-09-06T16:00:16.872Z,18.80
2018-09-06T16:02:44.516Z,18.50
2018-09-06T16:05:12.691Z,18.20
2018-09-06T16:07:40.815Z,17.90
2018-09-06T16:10:09.144Z,17.80
2018-09-06T16:12:37.313Z,17.70
2018-09-06T16:15:05.404Z,17.50
2018-09-06T16:17:33.492Z,17.50
2018-09-06T16:20:01.737Z,17.60
2018-09-06T16:22:29.843Z,17.60
2018-09-06T16:24:57.935Z,17.50
2018-09-06T16:27:26.159Z,17.30
2018-09-06T16:29:54.277Z,17.20
2018-09-06T16:32:22.407Z,17.30
2018-09-06T16:34:51.925Z,17.20
2018-09-06T16:37:20.056Z,17.20
2018-09-06T16:39:48.254Z,17.10
2018-09-06T16:42:16.336Z,17.10
2018-09-06T16:44:44.448Z,17.10
2018-09-06T16:47:12.575Z,17.00
2018-09-06T16:49:40.693Z,17.00
2018-09-06T16:52:09.024Z,17.00
2018-09-06T16:54:37.136Z,17.00
2018-09-06T16:57:05.220Z,17.00
2018-09-06T16:59:33.321Z,17.00
2018-09-06T17:02:01.623Z,17.00
2018-09-06T17:04:29.708Z,17.00
2018-09-06T17:06:57.810Z,16.90
2018-09-06T17:09:25.901Z,17.00
2018-09-06T17:11:54.028Z,17.00
2018-09-06T17:14:22.137Z,17.00
2018-09-06T17:16:50.279Z,17.00
2018-09-06T17:19:18.388Z,17.00
2018-09-06T17:21:46.517Z,16.70
2018-09-06T17:24:14.599Z,16.70
2018-09-06T17:26:42.788Z,16.80
2018-09-06T17:29:10.888Z,16.80
2018-09-06T17:31:39.117Z,16.70
2018-09-06T17:34:07.274Z,16.60
2018-09-06T17:36:35.401Z,16.50
2018-09-06T17:39:04.141Z,16.50
2018-09-06T17:41:32.297Z,16.30
2018-09-06T17:44:00.383Z,16.30
2018-09-06T17:46:28.556Z,16.30
2018-09-06T17:48:56.653Z,16.30
2018-09-06T17:51:24.761Z,16.30
2018-09-06T17:53:52.881Z,16.40
2018-09-06T17:56:21.020Z,16.30
2018-09-06T17:58:49.191Z,16.40
2018-09-06T18:01:25.250Z,16.40
2018-09-06T18:03:53.344Z,16.50
2018-09-06T18:06:21.455Z,16.50
2018-09-06T18:08:49.625Z,16.50
2018-09-06T18:11:17.725Z,16.50
2018-09-06T18:13:45.823Z,16.40
2018-09-06T18:16:13.932Z,16.40
2018-09-06T18:18:42.131Z,16.40
2018-09-06T18:21:11.569Z,16.40
2018-09-06T18:23:39.720Z,16.30
2018-09-06T18:26:07.804Z,16.30
2018-09-06T18:28:35.900Z,16.30
2018-09-06T18:31:04.119Z,16.30
2018-09-06T18:33:32.672Z,16.30
2018-09-06T18:36:01.769Z,16.30
2018-09-06T18:38:29.856Z,16.30
2018-09-06T18:40:58.019Z,16.30
2018-09-06T18:43:26.140Z,16.30
2018-09-06T18:45:54.409Z,16.40
2018-09-06T18:48:22.525Z,16.30
2018-09-06T18:50:57.166Z,16.20
2018-09-06T18:53:25.342Z,16.10
2018-09-06T18:55:53.435Z,16.10
2018-09-06T18:58:21.517Z,16.10
2018-09-06T19:00:49.625Z,16.10
2018-09-06T19:03:17.764Z,16.10
2018-09-06T19:05:45.867Z,16.10
2018-09-06T19:08:13.993Z,16.20
2018-09-06T19:10:42.108Z,16.10
2018-09-06T19:13:10.532Z,16.20
2018-09-06T19:15:38.638Z,16.20
2018-09-06T19:18:06.773Z,16.30
2018-09-06T19:20:34.889Z,16.30
2018-09-06T19:23:03.255Z,16.40
2018-09-06T19:25:31.405Z,16.50
2018-09-06T19:27:59.476Z,16.40
2018-09-06T19:30:27.585Z,16.30
2018-09-06T19:32:55.680Z,16.30
2018-09-06T19:35:23.841Z,16.40
2018-09-06T19:37:53.127Z,16.40
2018-09-06T19:40:21.696Z,16.30
2018-09-06T19:42:49.818Z,16.40
2018-09-06T19:45:17.923Z,16.40
2018-09-06T19:47:46.101Z,16.40
2018-09-06T19:50:14.200Z,16.50
2018-09-06T19:52:42.289Z,16.50
2018-09-06T19:55:10.422Z,16.50
2018-09-06T19:57:38.753Z,16.50
2018-09-06T20:00:07.459Z,16.50
2018-09-06T20:02:35.488Z,16.50
2018-09-06T20:05:03.609Z,16.50
2018-09-06T20:07:31.704Z,16.50
2018-09-06T20:09:59.940Z,16.60
2018-09-06T20:12:28.010Z,16.60
2018-09-06T20:14:56.107Z,16.60
2018-09-06T20:17:24.204Z,16.50
2018-09-06T20:19:52.369Z,16.50
2018-09-06T20:22:20.448Z,16.50
2018-09-06T20:24:48.558Z,16.50
2018-09-06T20:27:16.687Z,16.50
2018-09-06T20:29:44.784Z,16.50
2018-09-06T20:32:12.930Z,16.60
2018-09-06T20:34:40.991Z,16.50
2018-09-06T20:37:09.085Z,16.60
2018-09-06T20:39:37.222Z,16.60
2018-09-06T20:42:05.425Z,16.60
2018-09-06T20:44:33.556Z,16.60
2018-09-06T20:47:01.644Z,16.60
2018-09-06T20:49:29.853Z,16.60
2018-09-06T20:51:59.164Z,16.60
2018-09-06T20:54:27.248Z,16.60
2018-09-06T20:56:55.392Z,16.70
2018-09-06T20:59:23.526Z,16.70
2018-09-06T21:01:51.585Z,16.60
2018-09-06T21:04:19.681Z,16.60
2018-09-06T21:06:47.764Z,16.70
2018-09-06T21:09:15.848Z,16.60
2018-09-06T21:11:43.975Z,16.60
2018-09-06T21:14:12.100Z,16.60
2018-09-06T21:16:40.171Z,16.60
2018-09-06T21:19:08.274Z,16.50
2018-09-06T21:21:36.352Z,16.50
2018-09-06T21:24:04.432Z,16.50
2018-09-06T21:26:32.532Z,16.50
2018-09-06T21:29:00.612Z,16.50
2018-09-06T21:31:28.692Z,16.40
2018-09-06T21:33:56.785Z,16.40
2018-09-06T21:36:24.955Z,16.30
2018-09-06T21:38:53.037Z,16.40
2018-09-06T21:41:21.119Z,16.30
2018-09-06T21:43:49.211Z,16.40
2018-09-06T21:46:17.293Z,16.40
2018-09-06T21:48:45.416Z,16.30
2018-09-06T21:51:13.529Z,16.30
2018-09-06T21:53:43.724Z,16.30
2018-09-06T21:56:11.811Z,16.20
2018-09-06T21:58:39.957Z,16.20
2018-09-06T22:01:08.049Z,16.20
2018-09-06T22:03:41.645Z,16.20
2018-09-06T22:06:09.780Z,16.20
2018-09-06T22:08:37.884Z,16.20
2018-09-06T22:11:05.971Z,16.20
2018-09-06T22:13:34.066Z,16.20
2018-09-06T22:16:02.144Z,16.20
2018-09-06T22:18:30.290Z,16.20
2018-09-06T22:20:58.388Z,16.20
2018-09-06T22:23:26.452Z,16.30
2018-09-06T22:25:54.589Z,16.20
2018-09-06T22:28:22.650Z,16.20
2018-09-06T22:30:50.733Z,16.20
2018-09-06T22:33:18.832Z,16.10
2018-09-06T22:35:46.978Z,16.10
2018-09-06T22:38:15.073Z,16.20
2018-09-06T22:40:43.176Z,16.20
2018-09-06T22:43:11.268Z,16.20
